createdAt,value
2024-02-02T00:31:11.514Z,29.70
2024-02-02T00:34:21.444Z,31.20
2024-02-02T00:37:11.768Z,27.10
2024-02-02T00:40:05.538Z,27.80
2024-02-02T00:43:17.815Z,29.50
2024-02-02T00:46:32.695Z,27.00
2024-02-02T00:49:14.840Z,28.70
2024-02-02T00:51:52.311Z,29.60
2024-02-02T00:54:48.442Z,29.30
2024-02-02T00:57:25.286Z,31.70
2024-02-02T01:00:04.010Z,28.40
2024-02-02T01:02:44.774Z,29.20
2024-02-02T01:06:10.185Z,29.90
2024-02-02T01:09:17.095Z,26.10
2024-02-02T01:11:55.366Z,28.60
2024-02-02T01:15:24.714Z,30.60
2024-02-02T01:18:59.124Z,24.50
2024-02-02T01:21:55.433Z,36.20
2024-02-02T01:24:44.118Z,31.10
2024-02-02T01:27:53.065Z,27.70
2024-02-02T01:31:24.603Z,27.10
2024-02-02T01:34:53.598Z,28.40
2024-02-02T01:38:27.929Z,29.20
2024-02-02T01:41:01.946Z,31.20
2024-02-02T01:43:34.890Z,27.20
2024-02-02T01:49:38.778Z,34.80
2024-02-02T01:52:39.928Z,27.40
2024-02-02T01:55:33.610Z,32.30
2024-02-02T01:58:34.603Z,31.20
2024-02-02T02:01:25.655Z,28.10
2024-02-02T02:04:34.706Z,30.70
2024-02-02T02:07:55.097Z,29.50
2024-02-02T02:10:56.547Z,30.60
2024-02-02T02:13:56.942Z,34.00
2024-02-02T02:16:56.094Z,28.70
2024-02-02T02:20:34.327Z,33.80
2024-02-02T02:24:24.558Z,29.10
2024-02-02T02:35:38.524Z,32.10
2024-02-02T02:39:27.358Z,37.20
2024-02-02T02:57:41.775Z,38.00
2024-02-02T03:01:30.662Z,31.00
2024-02-02T03:05:19.429Z,29.50
2024-02-02T03:08:51.259Z,26.70
2024-02-02T03:12:08.257Z,27.80
2024-02-02T03:40:42.641Z,26.00
2024-02-02T03:43:35.132Z,22.80
2024-02-02T03:46:14.942Z,25.80
2024-02-02T03:48:45.542Z,38.90
2024-02-02T03:51:40.063Z,26.00
2024-02-02T03:54:09.246Z,23.60
2024-02-02T03:56:44.143Z,30.00
2024-02-02T03:59:20.492Z,30.10
2024-02-02T04:01:52.869Z,30.90
2024-02-02T04:04:21.508Z,28.40
2024-02-02T04:07:05.467Z,27.40
2024-02-02T04:09:37.501Z,28.60
2024-02-02T04:12:11.778Z,24.60
2024-02-02T04:14:43.118Z,31.10
2024-02-02T04:17:12.027Z,28.30
2024-02-02T04:20:00.722Z,28.60
2024-02-02T04:22:29.316Z,32.70
2024-02-02T04:25:00.727Z,30.00
2024-02-02T04:27:31.851Z,31.10
2024-02-02T04:30:00.759Z,29.00
2024-02-02T04:32:33.792Z,32.90
2024-02-02T04:35:05.471Z,30.20
2024-02-02T04:38:15.012Z,30.70
2024-02-02T04:41:09.459Z,30.80
2024-02-02T04:44:30.261Z,29.90
2024-02-02T04:47:41.836Z,29.10
2024-02-02T04:50:16.281Z,29.70
2024-02-02T04:53:21.170Z,26.90
2024-02-02T04:56:14.886Z,31.00
2024-02-02T05:00:03.501Z,28.90
2024-02-02T05:03:21.745Z,29.50
2024-02-02T05:06:19.481Z,33.20
2024-02-02T05:08:56.753Z,35.70
2024-02-02T05:11:37.750Z,27.40
2024-02-02T05:14:37.811Z,28.60
2024-02-02T05:17:09.546Z,27.80
2024-02-02T05:19:43.982Z,25.70
2024-02-02T05:22:30.717Z,28.70
2024-02-02T05:25:04.696Z,24.90
2024-02-02T05:28:02.069Z,25.50
2024-02-02T05:30:36.131Z,25.70
2024-02-02T05:33:27.641Z,22.80
2024-02-02T05:35:55.935Z,24.50
2024-02-02T05:38:24.290Z,22.00
2024-02-02T05:41:38.132Z,23.40
2024-02-02T05:44:10.162Z,20.90
2024-02-02T05:46:38.807Z,22.00
2024-02-02T05:49:47.538Z,25.10
2024-02-02T05:52:16.430Z,23.50
2024-02-02T05:55:11.034Z,20.90
2024-02-02T05:58:06.583Z,18.40
2024-02-02T06:01:02.758Z,17.80
2024-02-02T06:03:34.217Z,20.50
2024-02-02T06:06:07.910Z,21.30
2024-02-02T06:08:36.396Z,20.10
2024-02-02T06:11:05.161Z,19.40
2024-02-02T06:13:34.592Z,20.40
2024-02-02T06:16:03.150Z,18.70
2024-02-02T06:18:31.620Z,20.50
2024-02-02T06:21:00.090Z,17.90
2024-02-02T06:23:28.761Z,21.50
2024-02-02T06:25:57.079Z,26.90
2024-02-02T06:28:25.430Z,16.50
2024-02-02T06:30:53.817Z,24.80
2024-02-02T06:33:22.305Z,21.00
2024-02-02T06:35:50.814Z,27.20
2024-02-02T06:38:19.239Z,22.00
2024-02-02T06:40:47.538Z,16.50
2024-02-02T06:43:15.970Z,14.90
2024-02-02T06:45:48.696Z,20.40
2024-02-02T06:48:17.982Z,21.80
2024-02-02T06:50:46.555Z,14.80
2024-02-02T06:53:17.088Z,13.60
2024-02-02T06:55:46.693Z,15.40
2024-02-02T06:58:38.724Z,16.20
2024-02-02T07:01:08.524Z,15.00
2024-02-02T07:03:37.991Z,16.20
2024-02-02T07:06:07.826Z,16.00
2024-02-02T07:08:36.685Z,17.50
2024-02-02T07:11:42.695Z,14.90
2024-02-02T07:14:36.023Z,21.30
2024-02-02T07:17:13.256Z,13.80
2024-02-02T07:19:43.104Z,12.80
2024-02-02T07:22:35.069Z,14.10
2024-02-02T07:25:06.312Z,15.20
2024-02-02T07:27:55.905Z,13.80
2024-02-02T07:30:49.154Z,11.90
2024-02-02T07:33:46.836Z,17.00
2024-02-02T07:38:58.268Z,14.10
2024-02-02T07:41:28.861Z,14.70
2024-02-02T07:44:00.770Z,13.80
2024-02-02T07:46:29.902Z,13.10
2024-02-02T07:49:01.042Z,14.10
2024-02-02T07:51:29.719Z,13.50
2024-02-02T07:53:58.974Z,18.70
2024-02-02T07:56:27.382Z,15.80
2024-02-02T07:58:59.978Z,17.50
2024-02-02T08:01:32.620Z,15.30
2024-02-02T08:04:02.708Z,16.30
2024-02-02T08:06:31.814Z,16.20
2024-02-02T08:09:00.635Z,27.30
2024-02-02T08:11:36.296Z,21.40
2024-02-02T08:14:04.531Z,16.10
2024-02-02T08:16:32.768Z,15.70
2024-02-02T08:19:01.092Z,16.80
2024-02-02T08:21:29.526Z,16.90
2024-02-02T08:23:59.738Z,15.00
2024-02-02T08:26:27.956Z,16.60
2024-02-02T08:28:56.406Z,18.20
2024-02-02T08:31:24.773Z,16.20
2024-02-02T08:33:53.241Z,15.50
2024-02-02T08:36:21.895Z,14.90
2024-02-02T08:38:50.224Z,15.80
2024-02-02T08:41:19.309Z,19.90
2024-02-02T08:43:48.810Z,15.30
2024-02-02T08:46:21.011Z,16.20
2024-02-02T08:48:53.300Z,13.90
2024-02-02T08:51:47.830Z,27.00
2024-02-02T08:54:40.103Z,15.70
2024-02-02T08:57:33.177Z,17.70
2024-02-02T09:00:12.496Z,24.50
2024-02-02T09:03:06.083Z,25.10
2024-02-02T09:05:51.155Z,26.10
2024-02-02T09:08:36.596Z,32.10
2024-02-02T09:11:18.868Z,26.10
2024-02-02T09:14:01.260Z,21.60
2024-02-02T09:16:40.620Z,21.20
2024-02-02T09:19:25.442Z,19.50
2024-02-02T09:21:58.976Z,17.30
2024-02-02T09:24:42.318Z,19.30
2024-02-02T09:27:17.025Z,22.00
2024-02-02T09:29:50.197Z,20.90
2024-02-02T09:32:21.916Z,20.80
2024-02-02T09:34:50.632Z,24.20
2024-02-02T09:37:26.375Z,22.70
2024-02-02T09:39:59.093Z,41.40
2024-02-02T09:42:55.502Z,27.70
2024-02-02T09:45:49.944Z,25.60
2024-02-02T09:48:33.781Z,22.80
2024-02-02T09:51:23.513Z,21.30
2024-02-02T09:54:18.810Z,24.40
2024-02-02T09:57:27.397Z,22.80
2024-02-02T10:00:31.496Z,23.00
2024-02-02T10:03:22.691Z,21.40
2024-02-02T10:06:27.656Z,21.90
2024-02-02T10:09:35.946Z,18.50
2024-02-02T10:12:19.171Z,19.10
2024-02-02T10:15:22.348Z,19.60
2024-02-02T10:18:10.478Z,23.80
2024-02-02T10:20:47.253Z,21.50
2024-02-02T10:23:42.960Z,15.00
2024-02-02T10:26:40.697Z,20.00
2024-02-02T10:29:33.437Z,18.90
2024-02-02T10:32:20.439Z,23.00
2024-02-02T10:35:16.011Z,18.30
2024-02-02T10:37:50.507Z,20.40
2024-02-02T10:40:40.935Z,21.50
2024-02-02T10:43:35.805Z,20.00
2024-02-02T10:46:23.712Z,20.90
2024-02-02T10:49:16.841Z,21.20
2024-02-02T10:52:09.480Z,19.10
2024-02-02T10:54:57.017Z,20.30
2024-02-02T10:57:38.243Z,21.00
2024-02-02T11:00:25.378Z,21.40
2024-02-02T11:03:10.250Z,19.40
2024-02-02T11:05:51.446Z,22.20
2024-02-02T11:08:23.742Z,22.20
2024-02-02T11:11:14.008Z,15.90
2024-02-02T11:14:06.165Z,23.40
2024-02-02T11:17:08.931Z,23.90
2024-02-02T11:20:08.117Z,16.80
2024-02-02T11:22:48.155Z,21.70
2024-02-02T11:25:27.141Z,18.20
2024-02-02T11:28:10.925Z,21.00
2024-02-02T11:30:59.156Z,20.30
2024-02-02T11:34:07.773Z,18.20
2024-02-02T11:36:57.819Z,21.30
2024-02-02T11:39:52.386Z,18.90
2024-02-02T11:42:31.487Z,16.70
2024-02-02T11:45:07.089Z,18.50
2024-02-02T11:48:02.046Z,17.70
2024-02-02T11:50:46.951Z,16.80
2024-02-02T11:53:40.335Z,16.60
2024-02-02T11:56:39.426Z,16.20
2024-02-02T11:59:28.657Z,15.20
2024-02-02T12:02:32.094Z,14.30
2024-02-02T12:05:19.807Z,17.30
2024-02-02T12:08:17.989Z,19.60
2024-02-02T12:10:47.835Z,21.50
2024-02-02T12:13:29.079Z,18.70
2024-02-02T12:16:06.120Z,12.70
2024-02-02T12:18:41.943Z,13.70
2024-02-02T12:21:16.465Z,16.90
2024-02-02T12:23:48.410Z,21.00
2024-02-02T12:26:17.184Z,23.00
2024-02-02T12:28:46.122Z,29.60
2024-02-02T12:31:14.248Z,24.70
2024-02-02T12:33:43.607Z,23.10
2024-02-02T12:36:13.076Z,22.20
2024-02-02T12:38:43.013Z,20.70
2024-02-02T12:41:14.358Z,20.70
2024-02-02T12:43:47.921Z,23.00
2024-02-02T12:48:47.771Z,17.90
2024-02-02T12:51:22.303Z,18.90
2024-02-02T12:53:51.141Z,19.20
2024-02-02T12:56:19.748Z,13.90
2024-02-02T12:58:50.878Z,15.50
2024-02-02T13:01:19.904Z,17.70
2024-02-02T13:03:50.950Z,15.90
2024-02-02T13:06:20.081Z,15.90
2024-02-02T13:08:54.349Z,17.40
2024-02-02T13:11:24.952Z,17.70
2024-02-02T13:14:05.249Z,16.00
2024-02-02T13:16:36.060Z,13.20
2024-02-02T13:19:08.493Z,17.90
2024-02-02T13:21:43.590Z,13.10
2024-02-02T13:24:19.581Z,17.80
2024-02-02T13:26:52.278Z,14.80
2024-02-02T13:29:28.054Z,18.20
2024-02-02T13:31:56.643Z,13.90
2024-02-02T13:34:25.536Z,15.40
2024-02-02T13:37:06.971Z,14.80
2024-02-02T13:39:44.303Z,13.30
2024-02-02T13:42:17.474Z,16.10
2024-02-02T13:44:49.279Z,13.10
2024-02-02T13:47:24.006Z,12.90
2024-02-02T13:50:01.164Z,12.60
2024-02-02T13:52:36.760Z,16.60
2024-02-02T13:55:14.054Z,18.60
2024-02-02T13:57:43.701Z,19.40
2024-02-02T14:00:19.119Z,16.10
2024-02-02T14:02:52.439Z,15.30
2024-02-02T14:05:24.548Z,17.10
2024-02-02T14:08:21.532Z,17.10
2024-02-02T14:11:16.296Z,15.10
2024-02-02T14:13:47.690Z,23.50
2024-02-02T14:16:20.213Z,19.90
2024-02-02T14:19:07.725Z,14.60
2024-02-02T14:21:38.890Z,16.80
2024-02-02T14:24:16.291Z,19.80
2024-02-02T14:26:53.491Z,18.70
2024-02-02T14:29:39.888Z,16.40
2024-02-02T14:32:28.632Z,15.50
2024-02-02T14:35:00.064Z,16.90
2024-02-02T14:37:33.836Z,17.90
2024-02-02T14:40:05.544Z,18.40
2024-02-02T14:42:38.927Z,17.60
2024-02-02T14:45:16.405Z,15.80
2024-02-02T14:47:45.500Z,14.60
2024-02-02T14:50:25.975Z,22.90
2024-02-02T14:52:55.068Z,17.60
2024-02-02T14:55:33.582Z,13.20
2024-02-02T14:58:05.321Z,14.50
2024-02-02T15:00:34.527Z,16.00
2024-02-02T15:03:09.346Z,15.40
2024-02-02T15:05:49.416Z,16.60
2024-02-02T15:08:18.565Z,15.50
2024-02-02T15:10:57.108Z,15.00
2024-02-02T15:13:39.181Z,13.60
2024-02-02T15:16:39.281Z,16.70
2024-02-02T15:19:27.068Z,16.20
2024-02-02T15:22:04.106Z,14.30
2024-02-02T15:25:09.303Z,15.50
2024-02-02T15:27:39.328Z,15.00
2024-02-02T15:30:31.724Z,15.30
2024-02-02T15:34:07.989Z,16.20
2024-02-02T15:37:01.851Z,14.20
2024-02-02T15:40:28.076Z,24.00
2024-02-02T15:43:24.635Z,19.70
2024-02-02T15:46:17.836Z,17.30
2024-02-02T15:49:11.784Z,13.80
2024-02-02T15:52:17.996Z,14.60
2024-02-02T15:55:35.649Z,15.70
2024-02-02T15:58:39.061Z,17.20
2024-02-02T16:01:37.300Z,23.30
2024-02-02T16:04:16.546Z,15.90
2024-02-02T16:08:02.852Z,16.60
2024-02-02T16:11:31.094Z,17.00
2024-02-02T16:14:06.317Z,17.10
2024-02-02T16:16:35.052Z,17.90
2024-02-02T16:19:06.036Z,17.00
2024-02-02T16:21:34.630Z,18.70
2024-02-02T16:24:06.883Z,19.20
2024-02-02T16:26:36.108Z,18.70
2024-02-02T16:29:07.274Z,16.20
2024-02-02T16:31:35.807Z,16.60
2024-02-02T16:34:04.518Z,15.50
2024-02-02T16:36:50.057Z,17.50
2024-02-02T16:39:18.320Z,15.50
2024-02-02T16:41:47.391Z,17.10
2024-02-02T16:44:17.070Z,17.20
2024-02-02T16:46:45.732Z,17.70
2024-02-02T16:49:14.264Z,18.70
2024-02-02T16:51:43.273Z,24.10
2024-02-02T16:54:19.292Z,19.60
2024-02-02T16:56:50.853Z,19.20
2024-02-02T16:59:22.015Z,17.80
2024-02-02T17:02:07.924Z,21.00
2024-02-02T17:04:36.545Z,17.90
2024-02-02T17:07:05.629Z,24.80
2024-02-02T17:09:39.435Z,19.00
2024-02-02T17:12:08.930Z,17.60
2024-02-02T17:14:39.770Z,21.40
2024-02-02T17:17:08.337Z,20.60
2024-02-02T17:19:41.992Z,20.40
2024-02-02T17:22:10.530Z,24.40
2024-02-02T17:24:39.284Z,20.40
2024-02-02T17:27:07.683Z,20.80
2024-02-02T17:29:40.965Z,21.60
2024-02-02T17:32:09.530Z,26.00
2024-02-02T17:34:37.944Z,20.30
2024-02-02T17:37:06.670Z,21.40
2024-02-02T17:39:42.155Z,22.00
2024-02-02T17:42:16.142Z,22.40
2024-02-02T17:44:49.434Z,20.30
2024-02-02T17:47:22.468Z,19.90
2024-02-02T17:49:55.471Z,18.80
2024-02-02T17:52:28.172Z,19.40
2024-02-02T17:54:58.066Z,20.90
2024-02-02T17:57:32.267Z,17.40
2024-02-02T18:00:25.903Z,17.40
2024-02-02T18:03:53.736Z,17.80
2024-02-02T18:06:45.141Z,19.40
2024-02-02T18:09:56.870Z,20.20
2024-02-02T18:12:38.408Z,17.20
2024-02-02T18:15:11.306Z,20.50
2024-02-02T18:17:47.299Z,19.80
2024-02-02T18:20:27.871Z,18.60
2024-02-02T18:23:01.867Z,22.40
2024-02-02T18:25:30.771Z,20.40
2024-02-02T18:28:02.062Z,23.70
2024-02-02T18:30:32.843Z,22.10
2024-02-02T18:33:00.929Z,20.30
2024-02-02T18:35:29.448Z,23.70
2024-02-02T18:37:57.503Z,21.10
2024-02-02T18:40:27.128Z,28.20
2024-02-02T18:43:01.442Z,21.90
2024-02-02T18:45:51.755Z,24.10
2024-02-02T18:48:43.862Z,26.00
2024-02-02T18:51:29.762Z,28.50
2024-02-02T18:54:13.217Z,21.90
2024-02-02T18:57:11.635Z,23.50
2024-02-02T19:00:38.407Z,22.40
2024-02-02T19:04:27.307Z,21.10
2024-02-02T19:07:36.922Z,22.50
2024-02-02T19:10:21.514Z,26.10
2024-02-02T19:13:31.588Z,21.90
2024-02-02T19:16:46.099Z,22.70
2024-02-02T19:19:19.953Z,23.70
2024-02-02T19:21:48.963Z,22.60
2024-02-02T19:24:17.624Z,21.20
2024-02-02T19:26:51.355Z,23.40
2024-02-02T19:29:23.451Z,26.50
2024-02-02T19:31:57.832Z,25.30
2024-02-02T19:34:30.563Z,22.40
2024-02-02T19:37:00.654Z,25.90
2024-02-02T19:39:29.157Z,27.20
2024-02-02T19:41:58.531Z,24.30
2024-02-02T19:44:33.530Z,32.70
2024-02-02T19:47:02.189Z,48.60
2024-02-02T19:50:11.062Z,37.60
2024-02-02T19:53:28.270Z,27.80
2024-02-02T19:57:02.454Z,21.70
2024-02-02T20:00:35.989Z,23.70
2024-02-02T20:04:04.938Z,22.50
2024-02-02T20:07:45.053Z,19.30
2024-02-02T20:10:34.278Z,24.70
2024-02-02T20:14:00.894Z,21.60
2024-02-02T20:16:52.802Z,22.30
2024-02-02T20:19:26.294Z,26.80
2024-02-02T20:21:55.143Z,33.30
2024-02-02T20:24:24.126Z,48.10
2024-02-02T20:26:55.313Z,25.00
2024-02-02T20:29:24.087Z,22.00
2024-02-02T20:31:52.374Z,24.20
2024-02-02T20:34:21.039Z,26.60
2024-02-02T20:36:49.866Z,21.70
2024-02-02T20:39:18.166Z,20.50
2024-02-02T20:41:46.639Z,21.60
2024-02-02T20:44:16.202Z,19.60
2024-02-02T20:46:45.200Z,18.60
2024-02-02T20:49:18.645Z,21.30
2024-02-02T20:51:50.328Z,19.90
2024-02-02T20:54:18.785Z,24.20
2024-02-02T20:56:47.158Z,18.50
2024-02-02T20:59:15.985Z,19.50
2024-02-02T21:01:44.475Z,19.20
2024-02-02T21:04:12.749Z,22.00
2024-02-02T21:06:43.714Z,25.10
2024-02-02T21:09:12.035Z,28.00
2024-02-02T21:11:40.613Z,20.70
2024-02-02T21:14:09.143Z,20.20
2024-02-02T21:16:37.718Z,34.30
2024-02-02T21:19:07.461Z,36.50
2024-02-02T21:21:38.011Z,28.40
2024-02-02T21:24:06.964Z,28.50
2024-02-02T21:26:35.196Z,19.40
2024-02-02T21:29:03.342Z,20.10
2024-02-02T21:31:31.436Z,20.00
2024-02-02T21:33:59.553Z,20.30
2024-02-02T21:36:28.923Z,21.50
2024-02-02T21:38:58.449Z,20.30
2024-02-02T21:41:29.662Z,19.10
2024-02-02T21:43:58.540Z,20.70
2024-02-02T21:46:27.296Z,31.90
2024-02-02T21:48:55.828Z,41.20
2024-02-02T21:51:24.512Z,24.60
2024-02-02T21:53:53.048Z,23.50
2024-02-02T21:56:22.155Z,37.40
2024-02-02T21:58:50.556Z,52.00
2024-02-02T22:01:18.650Z,33.50
2024-02-02T22:03:47.044Z,27.60
2024-02-02T22:06:15.951Z,24.50
2024-02-02T22:08:44.669Z,21.70
2024-02-02T22:11:14.329Z,21.40
2024-02-02T22:13:43.612Z,20.80
2024-02-02T22:16:11.955Z,20.50
2024-02-02T22:18:59.158Z,21.60
2024-02-02T22:21:29.091Z,22.40
2024-02-02T22:23:57.818Z,18.50
2024-02-02T22:26:26.083Z,19.60
2024-02-02T22:28:57.712Z,20.40
2024-02-02T22:31:26.157Z,20.60
2024-02-02T22:33:57.518Z,20.50
2024-02-02T22:36:26.186Z,27.10
2024-02-02T22:38:56.282Z,24.20
2024-02-02T22:41:33.061Z,24.00
2024-02-02T22:44:03.149Z,20.70
2024-02-02T22:46:32.553Z,20.00
2024-02-02T22:49:02.467Z,19.40
2024-02-02T22:51:45.014Z,18.70
2024-02-02T22:54:13.943Z,23.80
2024-02-02T22:56:42.820Z,17.80
2024-02-02T22:59:11.627Z,22.80
2024-02-02T23:01:40.236Z,27.00
2024-02-02T23:04:08.820Z,17.80
2024-02-02T23:06:37.473Z,19.00
2024-02-02T23:09:24.830Z,20.10
2024-02-02T23:11:58.997Z,20.20
2024-02-02T23:14:58.984Z,20.40
2024-02-02T23:18:17.337Z,21.70
2024-02-02T23:21:23.726Z,20.50
2024-02-02T23:24:12.276Z,20.80
2024-02-02T23:26:40.919Z,19.00
2024-02-02T23:29:09.947Z,20.20
2024-02-02T23:31:38.990Z,27.50
2024-02-02T23:34:07.541Z,20.00
2024-02-02T23:36:39.021Z,21.90
2024-02-02T23:39:07.761Z,23.20
2024-02-02T23:41:36.140Z,21.20
2024-02-02T23:44:04.538Z,23.50
2024-02-02T23:46:32.669Z,19.60
2024-02-02T23:49:03.267Z,21.80
2024-02-02T23:51:31.728Z,21.90
2024-02-02T23:53:59.883Z,23.20
2024-02-02T23:56:30.704Z,22.30
2024-02-02T23:59:01.021Z,22.70
